createdAt,value
2018-08-11T00:00:16.886Z,20.60
2018-08-11T00:02:45.510Z,20.50
2018-08-11T00:05:13.982Z,20.50
2018-08-11T00:07:42.429Z,20.40
2018-08-11T00:10:10.971Z,20.40
2018-08-11T00:12:39.453Z,20.40
2018-08-11T00:15:11.290Z,20.40
2018-08-11T00:17:40.210Z,20.30
2018-08-11T00:20:11.439Z,20.20
2018-08-11T00:22:40.744Z,20.10
2018-08-11T00:25:17.037Z,20.00
2018-08-11T00:27:45.560Z,19.90
2018-08-11T00:30:16.459Z,19.80
2018-08-11T00:32:44.899Z,19.70
2018-08-11T00:35:14.393Z,19.70
2018-08-11T00:37:43.415Z,19.60
2018-08-11T00:40:15.886Z,19.60
2018-08-11T00:42:45.393Z,19.60
2018-08-11T00:45:14.934Z,19.70
2018-08-11T00:47:43.623Z,19.80
2018-08-11T00:50:16.939Z,19.90
2018-08-11T00:52:45.362Z,20.00
2018-08-11T00:55:14.424Z,20.00
2018-08-11T00:57:43.032Z,20.10
2018-08-11T01:00:14.172Z,20.10
2018-08-11T01:02:42.846Z,20.10
2018-08-11T01:05:14.390Z,20.00
2018-08-11T01:07:43.523Z,20.00
2018-08-11T01:10:12.553Z,20.00
2018-08-11T01:12:42.005Z,20.00
2018-08-11T01:15:12.604Z,20.10
2018-08-11T01:17:40.966Z,20.10
2018-08-11T01:20:10.623Z,20.10
2018-08-11T01:22:39.703Z,20.20
2018-08-11T01:25:08.525Z,20.10
2018-08-11T01:27:37.207Z,20.00
2018-08-11T01:30:07.957Z,19.90
2018-08-11T01:32:36.386Z,19.80
2018-08-11T01:35:05.493Z,19.80
2018-08-11T01:37:34.155Z,19.70
2018-08-11T01:40:02.555Z,19.70
2018-08-11T01:42:31.008Z,19.70
2018-08-11T01:44:59.353Z,19.70
2018-08-11T01:47:27.765Z,19.70
2018-08-11T01:49:56.170Z,19.80
2018-08-11T01:52:24.570Z,19.80
2018-08-11T01:54:53.105Z,19.80
2018-08-11T01:57:21.479Z,19.80
2018-08-11T01:59:49.841Z,19.80
2018-08-11T02:02:18.223Z,19.80
2018-08-11T02:04:46.615Z,19.70
2018-08-11T02:07:14.985Z,19.70
2018-08-11T02:09:43.369Z,19.60
2018-08-11T02:12:11.785Z,19.60
2018-08-11T02:14:40.154Z,19.50
2018-08-11T02:17:08.545Z,19.50
2018-08-11T02:19:36.997Z,19.50
2018-08-11T02:22:05.422Z,19.60
2018-08-11T02:24:33.841Z,19.70
2018-08-11T02:27:02.251Z,19.70
2018-08-11T02:29:30.614Z,19.80
2018-08-11T02:31:59.212Z,19.90
2018-08-11T02:34:27.640Z,19.90
2018-08-11T02:36:55.998Z,19.90
2018-08-11T02:39:24.393Z,19.90
2018-08-11T02:41:52.802Z,19.90
2018-08-11T02:44:21.170Z,19.90
2018-08-11T02:46:49.567Z,19.90
2018-08-11T02:49:17.987Z,19.90
2018-08-11T02:51:46.387Z,19.90
2018-08-11T02:54:14.803Z,19.90
2018-08-11T02:56:43.216Z,19.90
2018-08-11T02:59:11.629Z,19.80
2018-08-11T03:01:40.114Z,19.70
2018-08-11T03:04:08.469Z,19.60
2018-08-11T03:06:36.855Z,19.50
2018-08-11T03:09:07.739Z,19.40
2018-08-11T03:11:36.203Z,19.30
2018-08-11T03:14:04.991Z,19.20
2018-08-11T03:16:33.279Z,19.10
2018-08-11T03:19:01.718Z,19.00
2018-08-11T03:21:30.118Z,19.00
2018-08-11T03:23:58.478Z,18.80
2018-08-11T03:26:26.868Z,18.70
2018-08-11T03:28:55.253Z,18.70
2018-08-11T03:31:23.643Z,18.60
2018-08-11T03:33:52.031Z,18.50
2018-08-11T03:36:20.536Z,18.50
2018-08-11T03:38:48.954Z,18.50
2018-08-11T03:41:17.303Z,18.50
2018-08-11T03:43:45.793Z,18.50
2018-08-11T03:46:14.148Z,18.50
2018-08-11T03:48:42.574Z,18.50
2018-08-11T03:51:10.925Z,18.40
2018-08-11T03:53:39.400Z,18.40
2018-08-11T03:56:07.791Z,18.30
2018-08-11T03:58:36.198Z,18.20
2018-08-11T04:01:04.603Z,18.20
2018-08-11T04:03:33.027Z,18.40
2018-08-11T04:06:01.383Z,18.40
2018-08-11T04:08:29.801Z,18.30
2018-08-11T04:10:58.154Z,18.30
2018-08-11T04:13:26.539Z,18.20
2018-08-11T04:15:54.890Z,18.10
2018-08-11T04:18:23.266Z,18.10
2018-08-11T04:20:51.613Z,18.10
2018-08-11T04:23:19.982Z,18.00
2018-08-11T04:25:48.370Z,17.90
2018-08-11T04:28:16.806Z,17.80
2018-08-11T04:30:45.341Z,17.80
2018-08-11T04:33:13.722Z,17.60
2018-08-11T04:35:45.044Z,17.60
2018-08-11T04:38:13.419Z,17.50
2018-08-11T04:40:41.777Z,17.50
2018-08-11T04:43:10.148Z,17.50
2018-08-11T04:45:38.510Z,17.50
2018-08-11T04:48:06.942Z,17.50
2018-08-11T04:50:35.306Z,17.60
2018-08-11T04:53:03.759Z,17.70
2018-08-11T04:55:32.238Z,17.90
2018-08-11T04:58:00.601Z,18.00
2018-08-11T05:00:29.083Z,18.00
2018-08-11T05:02:57.483Z,18.10
2018-08-11T05:05:26.003Z,18.10
2018-08-11T05:07:54.425Z,18.20
2018-08-11T05:10:22.856Z,18.30
2018-08-11T05:12:51.257Z,18.30
2018-08-11T05:15:19.661Z,18.40
2018-08-11T05:17:48.053Z,18.40
2018-08-11T05:20:23.227Z,18.50
2018-08-11T05:22:51.633Z,18.60
2018-08-11T05:25:20.001Z,18.80
2018-08-11T05:27:48.474Z,18.90
2018-08-11T05:30:16.922Z,19.10
2018-08-11T05:32:45.281Z,19.20
2018-08-11T05:35:13.694Z,19.30
2018-08-11T05:37:42.274Z,19.40
2018-08-11T05:42:45.312Z,19.20
2018-08-11T05:45:13.920Z,19.20
2018-08-11T05:47:42.323Z,19.20
2018-08-11T05:50:10.716Z,19.30
2018-08-11T05:52:39.100Z,19.30
2018-08-11T05:55:07.576Z,19.30
2018-08-11T05:57:35.914Z,19.30
2018-08-11T06:00:06.441Z,19.30
2018-08-11T06:02:34.801Z,19.30
2018-08-11T06:05:03.279Z,19.40
2018-08-11T06:07:31.656Z,19.50
2018-08-11T06:10:00.238Z,19.60
2018-08-11T06:12:28.605Z,19.60
2018-08-11T06:14:57.003Z,19.70
2018-08-11T06:17:25.366Z,19.80
2018-08-11T06:19:53.837Z,20.00
2018-08-11T06:22:22.219Z,20.10
2018-08-11T06:24:50.608Z,20.20
2018-08-11T06:27:19.042Z,20.20
2018-08-11T06:29:47.450Z,20.30
2018-08-11T06:32:15.874Z,20.30
2018-08-11T06:34:44.402Z,20.30
2018-08-11T06:37:12.791Z,20.20
2018-08-11T06:39:41.192Z,20.30
2018-08-11T06:42:09.561Z,20.50
2018-08-11T06:44:37.959Z,20.50
2018-08-11T06:47:06.351Z,20.60
2018-08-11T06:49:34.779Z,20.80
2018-08-11T06:52:03.182Z,20.90
2018-08-11T06:54:31.572Z,21.00
2018-08-11T06:56:59.962Z,21.20
2018-08-11T06:59:28.350Z,21.20
2018-08-11T07:01:56.745Z,21.10
2018-08-11T07:04:25.209Z,20.90
2018-08-11T07:06:53.667Z,20.70
2018-08-11T07:09:22.225Z,20.80
2018-08-11T07:11:50.617Z,20.90
2018-08-11T07:14:18.975Z,21.10
2018-08-11T07:16:47.418Z,21.20
2018-08-11T07:19:16.063Z,21.50
2018-08-11T07:21:44.817Z,21.80
2018-08-11T07:24:13.180Z,21.60
2018-08-11T07:26:41.627Z,21.40
2018-08-11T07:29:09.967Z,21.10
2018-08-11T07:31:38.389Z,21.10
2018-08-11T07:34:06.779Z,21.10
2018-08-11T07:36:35.271Z,21.20
2018-08-11T07:39:04.182Z,21.20
2018-08-11T07:41:32.622Z,21.20
2018-08-11T07:44:01.073Z,20.90
2018-08-11T07:46:29.599Z,20.70
2018-08-11T07:48:57.998Z,20.70
2018-08-11T07:51:26.458Z,21.00
2018-08-11T07:53:54.971Z,21.50
2018-08-11T07:56:23.440Z,21.80
2018-08-11T07:58:51.819Z,21.80
2018-08-11T08:01:20.290Z,21.80
2018-08-11T08:03:48.667Z,21.90
2018-08-11T08:06:17.175Z,21.60
2018-08-11T08:08:45.564Z,21.20
2018-08-11T08:11:14.009Z,21.10
2018-08-11T08:13:42.573Z,21.20
2018-08-11T08:16:11.049Z,21.40
2018-08-11T08:18:39.487Z,21.70
2018-08-11T08:21:07.943Z,21.90
2018-08-11T08:23:36.399Z,22.10
2018-08-11T08:26:04.989Z,22.30
2018-08-11T08:28:33.448Z,22.30
2018-08-11T08:31:01.938Z,22.20
2018-08-11T08:33:30.697Z,22.20
2018-08-11T08:35:59.506Z,22.20
2018-08-11T08:38:28.224Z,22.20
2018-08-11T08:40:56.701Z,22.30
2018-08-11T08:43:25.231Z,22.60
2018-08-11T08:45:53.627Z,22.60
2018-08-11T08:48:22.042Z,22.80
2018-08-11T08:50:50.445Z,23.40
2018-08-11T08:53:19.016Z,23.90
2018-08-11T08:55:47.394Z,24.10
2018-08-11T08:58:15.791Z,24.00
2018-08-11T09:00:44.178Z,23.70
2018-08-11T09:03:12.639Z,23.50
2018-08-11T09:05:41.106Z,23.40
2018-08-11T09:08:09.738Z,23.40
2018-08-11T09:10:38.178Z,23.40
2018-08-11T09:13:07.032Z,23.40
2018-08-11T09:15:35.562Z,23.30
2018-08-11T09:18:03.996Z,23.30
2018-08-11T09:20:32.382Z,23.40
2018-08-11T09:23:00.793Z,23.30
2018-08-11T09:25:29.609Z,23.40
2018-08-11T09:27:58.071Z,23.50
2018-08-11T09:30:26.558Z,23.50
2018-08-11T09:32:55.098Z,23.80
2018-08-11T09:35:23.484Z,24.10
2018-08-11T09:37:51.882Z,24.30
2018-08-11T09:40:20.278Z,24.50
2018-08-11T09:42:48.717Z,24.80
2018-08-11T09:45:17.279Z,25.00
2018-08-11T09:47:45.751Z,25.10
2018-08-11T09:50:14.186Z,24.80
2018-08-11T09:52:42.778Z,24.70
2018-08-11T09:55:11.198Z,24.50
2018-08-11T09:57:39.625Z,24.40
2018-08-11T10:00:09.267Z,24.20
2018-08-11T10:02:37.715Z,24.30
2018-08-11T10:05:06.455Z,24.10
2018-08-11T10:07:35.067Z,24.10
2018-08-11T10:10:03.553Z,24.20
2018-08-11T10:12:31.993Z,24.20
2018-08-11T10:15:00.654Z,24.30
2018-08-11T10:17:29.429Z,24.50
2018-08-11T10:19:57.806Z,24.70
2018-08-11T10:22:26.206Z,24.60
2018-08-11T10:24:54.678Z,24.70
2018-08-11T10:27:23.085Z,24.70
2018-08-11T10:29:51.509Z,24.80
2018-08-11T10:32:19.912Z,24.80
2018-08-11T10:34:48.309Z,24.60
2018-08-11T10:37:16.686Z,24.40
2018-08-11T10:39:45.245Z,24.40
2018-08-11T10:42:13.682Z,24.70
2018-08-11T10:44:42.098Z,24.80
2018-08-11T10:47:10.611Z,25.10
2018-08-11T10:49:38.915Z,25.40
2018-08-11T10:52:07.361Z,25.60
2018-08-11T10:54:35.832Z,25.10
2018-08-11T10:58:07.253Z,25.00
2018-08-11T11:00:35.719Z,25.00
2018-08-11T11:03:04.796Z,24.50
2018-08-11T11:05:33.246Z,24.10
2018-08-11T11:08:01.606Z,24.30
2018-08-11T11:10:30.046Z,24.60
2018-08-11T11:12:58.494Z,25.10
2018-08-11T11:15:26.935Z,25.70
2018-08-11T11:17:55.426Z,26.40
2018-08-11T11:20:24.118Z,26.40
2018-08-11T11:22:52.612Z,26.30
2018-08-11T11:25:21.911Z,26.70
2018-08-11T11:27:50.591Z,27.40
2018-08-11T11:30:18.973Z,27.70
2018-08-11T11:32:47.404Z,27.90
2018-08-11T11:35:15.840Z,27.50
2018-08-11T11:37:44.302Z,28.00
2018-08-11T11:40:12.701Z,28.00
2018-08-11T11:42:41.252Z,27.60
2018-08-11T11:45:09.668Z,27.30
2018-08-11T11:47:38.205Z,27.20
2018-08-11T11:50:06.939Z,27.60
2018-08-11T11:52:35.350Z,27.50
2018-08-11T11:55:04.710Z,27.20
2018-08-11T11:57:33.158Z,27.10
2018-08-11T12:00:01.631Z,28.10
2018-08-11T12:02:30.141Z,29.30
2018-08-11T12:04:58.615Z,29.80
2018-08-11T12:07:27.122Z,30.20
2018-08-11T12:09:55.553Z,30.10
2018-08-11T12:12:24.001Z,30.10
2018-08-11T12:14:52.446Z,30.60
2018-08-11T12:17:20.884Z,30.60
2018-08-11T12:19:49.303Z,30.50
2018-08-11T12:22:17.780Z,30.30
2018-08-11T12:24:46.350Z,30.70
2018-08-11T12:27:15.111Z,31.00
2018-08-11T12:29:43.769Z,30.80
2018-08-11T12:32:12.188Z,31.00
2018-08-11T12:34:40.674Z,31.30
2018-08-11T12:37:09.110Z,32.00
2018-08-11T12:39:37.591Z,32.70
2018-08-11T12:42:06.065Z,33.10
2018-08-11T12:44:34.714Z,32.30
2018-08-11T12:47:03.812Z,32.60
2018-08-11T12:49:32.307Z,33.30
2018-08-11T12:52:00.713Z,33.90
2018-08-11T12:54:29.990Z,34.20
2018-08-11T12:56:58.631Z,33.00
2018-08-11T12:59:27.045Z,31.80
2018-08-11T13:01:55.573Z,30.30
2018-08-11T13:04:24.841Z,29.80
2018-08-11T13:06:55.028Z,29.80
2018-08-11T13:09:23.553Z,30.40
2018-08-11T13:11:52.231Z,31.10
2018-08-11T13:14:20.667Z,31.10
2018-08-11T13:16:49.396Z,31.80
2018-08-11T13:19:17.930Z,32.80
2018-08-11T13:21:46.387Z,33.80
2018-08-11T13:24:14.873Z,33.60
2018-08-11T13:26:43.341Z,33.60
2018-08-11T13:29:11.841Z,32.90
2018-08-11T13:31:40.295Z,32.40
2018-08-11T13:34:08.766Z,31.30
2018-08-11T13:36:37.349Z,30.80
2018-08-11T13:39:08.340Z,31.60
2018-08-11T13:41:46.381Z,32.50
2018-08-11T13:44:16.328Z,32.00
2018-08-11T13:46:44.762Z,30.80
2018-08-11T13:49:13.304Z,31.00
2018-08-11T13:51:42.810Z,31.30
2018-08-11T13:54:11.336Z,32.10
2018-08-11T13:56:39.977Z,33.20
2018-08-11T13:59:08.786Z,33.70
2018-08-11T14:01:37.270Z,34.70
2018-08-11T14:04:05.821Z,35.50
2018-08-11T14:06:34.466Z,35.20
2018-08-11T14:09:03.346Z,32.70
2018-08-11T14:11:31.794Z,30.70
2018-08-11T14:14:00.191Z,29.20
2018-08-11T14:16:28.665Z,28.10
2018-08-11T14:18:57.175Z,28.70
2018-08-11T14:21:25.595Z,30.30
2018-08-11T14:23:54.033Z,31.50
2018-08-11T14:26:22.498Z,33.00
2018-08-11T14:28:51.002Z,34.20
2018-08-11T14:31:19.495Z,34.20
2018-08-11T14:33:48.131Z,32.40
2018-08-11T14:36:16.605Z,32.30
2018-08-11T14:38:45.167Z,32.60
2018-08-11T14:41:13.579Z,33.10
2018-08-11T14:43:42.011Z,34.10
2018-08-11T14:46:10.534Z,34.70
2018-08-11T14:48:39.123Z,34.40
2018-08-11T14:51:07.631Z,33.60
2018-08-11T14:53:36.057Z,31.80
2018-08-11T14:56:04.725Z,30.10
2018-08-11T14:58:33.307Z,29.20
2018-08-11T15:01:01.910Z,28.50
2018-08-11T15:03:30.370Z,29.20
2018-08-11T15:05:58.791Z,30.80
2018-08-11T15:08:27.192Z,32.60
2018-08-11T15:10:55.784Z,33.90
2018-08-11T15:13:24.175Z,34.60
2018-08-11T15:15:52.699Z,34.90
2018-08-11T15:18:21.096Z,34.40
2018-08-11T15:20:49.598Z,33.30
2018-08-11T15:23:18.244Z,33.60
2018-08-11T15:25:46.751Z,34.30
2018-08-11T15:28:15.203Z,35.20
2018-08-11T15:30:43.629Z,36.10
2018-08-11T15:33:12.008Z,36.40
2018-08-11T15:35:40.450Z,36.40
2018-08-11T15:38:08.938Z,36.90
2018-08-11T15:40:37.384Z,37.40
2018-08-11T15:43:05.833Z,37.50
2018-08-11T15:45:34.267Z,37.50
2018-08-11T15:48:02.687Z,37.20
2018-08-11T15:50:31.148Z,36.50
2018-08-11T15:52:59.545Z,36.30
2018-08-11T15:55:28.147Z,36.30
2018-08-11T15:57:56.547Z,36.30
2018-08-11T16:00:25.148Z,36.80
2018-08-11T16:02:53.611Z,37.50
2018-08-11T16:05:22.214Z,37.40
2018-08-11T16:07:50.807Z,37.30
2018-08-11T16:10:19.212Z,37.80
2018-08-11T16:12:47.669Z,38.00
2018-08-11T16:15:16.130Z,37.70
2018-08-11T16:17:44.617Z,37.00
2018-08-11T16:20:13.033Z,36.40
2018-08-11T16:22:42.147Z,35.60
2018-08-11T16:25:10.578Z,34.00
2018-08-11T16:27:39.140Z,33.00
2018-08-11T16:31:21.545Z,32.40
2018-08-11T16:33:50.001Z,32.40
2018-08-11T16:36:18.523Z,32.30
2018-08-11T16:38:48.108Z,32.50
2018-08-11T16:41:16.565Z,32.80
2018-08-11T16:43:44.974Z,33.10
2018-08-11T16:46:13.375Z,33.00
2018-08-11T16:48:44.738Z,32.80
2018-08-11T16:51:15.943Z,32.80
2018-08-11T16:53:46.488Z,32.80
2018-08-11T16:56:15.337Z,32.80
2018-08-11T16:58:43.803Z,33.00
2018-08-11T17:01:12.242Z,33.10
2018-08-11T17:03:40.830Z,32.90
2018-08-11T17:07:34.485Z,31.60
2018-08-11T17:10:03.014Z,31.00
2018-08-11T17:12:31.428Z,31.00
2018-08-11T17:14:59.887Z,30.90
2018-08-11T17:17:28.272Z,30.70
2018-08-11T17:19:56.657Z,31.00
2018-08-11T17:22:25.090Z,31.00
2018-08-11T17:24:53.779Z,30.80
2018-08-11T17:27:22.186Z,30.70
2018-08-11T17:29:50.714Z,30.50
2018-08-11T17:32:19.149Z,30.40
2018-08-11T17:34:47.650Z,30.40
2018-08-11T17:37:16.125Z,30.40
2018-08-11T17:39:44.577Z,30.30
2018-08-11T17:42:13.011Z,29.70
2018-08-11T17:44:41.494Z,28.90
2018-08-11T17:47:09.948Z,28.20
2018-08-11T17:49:38.938Z,27.60
2018-08-11T17:52:07.537Z,27.20
2018-08-11T17:54:36.191Z,26.80
2018-08-11T17:57:04.643Z,26.60
2018-08-11T17:59:33.100Z,26.30
2018-08-11T18:02:01.526Z,25.90
2018-08-11T18:04:30.036Z,25.60
2018-08-11T18:06:58.554Z,25.40
2018-08-11T18:09:26.926Z,25.30
2018-08-11T18:11:55.359Z,25.10
2018-08-11T18:14:23.799Z,25.00
2018-08-11T18:16:52.281Z,25.00
2018-08-11T18:19:20.884Z,24.80
2018-08-11T18:21:49.374Z,24.60
2018-08-11T18:24:17.748Z,24.50
2018-08-11T18:26:46.490Z,24.50
2018-08-11T18:29:14.970Z,24.60
2018-08-11T18:31:43.922Z,24.50
2018-08-11T18:34:12.428Z,24.40
2018-08-11T18:36:40.897Z,24.30
2018-08-11T18:39:11.515Z,24.10
2018-08-11T18:41:40.666Z,23.90
2018-08-11T18:44:09.344Z,23.80
2018-08-11T18:46:38.165Z,23.60
2018-08-11T18:49:07.011Z,23.60
2018-08-11T18:51:35.559Z,23.40
2018-08-11T18:54:04.164Z,23.30
2018-08-11T18:56:32.657Z,23.20
2018-08-11T18:59:01.230Z,23.10
2018-08-11T19:01:29.713Z,23.00
2018-08-11T19:03:58.181Z,23.00
2018-08-11T19:06:26.766Z,22.90
2018-08-11T19:08:55.278Z,22.90
2018-08-11T19:11:23.772Z,22.80
2018-08-11T19:13:52.209Z,22.80
2018-08-11T19:16:20.715Z,22.70
2018-08-11T19:18:49.303Z,22.60
2018-08-11T19:21:17.735Z,22.50
2018-08-11T19:23:46.262Z,22.50
2018-08-11T19:26:14.820Z,22.40
2018-08-11T19:28:43.267Z,22.40
2018-08-11T19:31:11.771Z,22.40
2018-08-11T19:33:40.225Z,22.40
2018-08-11T19:36:08.718Z,22.40
2018-08-11T19:38:37.665Z,22.30
2018-08-11T19:41:06.167Z,22.20
2018-08-11T19:43:34.754Z,22.20
2018-08-11T19:46:03.198Z,22.20
2018-08-11T19:48:31.764Z,22.20
2018-08-11T19:51:00.256Z,22.10
2018-08-11T19:54:53.245Z,22.00
2018-08-11T19:57:22.227Z,22.00
2018-08-11T19:59:50.774Z,21.90
2018-08-11T20:02:19.195Z,21.90
2018-08-11T20:04:47.692Z,21.80
2018-08-11T20:07:16.176Z,21.80
2018-08-11T20:09:45.133Z,21.80
2018-08-11T20:12:13.675Z,21.80
2018-08-11T20:14:42.164Z,21.80
2018-08-11T20:17:10.679Z,21.70
2018-08-11T20:19:39.235Z,21.70
2018-08-11T20:22:14.466Z,21.70
2018-08-11T20:24:42.882Z,21.70
2018-08-11T20:27:15.129Z,21.60
2018-08-11T20:29:43.690Z,21.60
2018-08-11T20:32:13.979Z,21.60
2018-08-11T20:34:43.288Z,21.50
2018-08-11T20:37:13.004Z,21.50
2018-08-11T20:39:41.954Z,21.50
2018-08-11T20:42:10.680Z,21.50
2018-08-11T20:44:39.515Z,21.40
2018-08-11T20:47:08.193Z,21.40
2018-08-11T20:49:36.715Z,21.30
2018-08-11T20:52:05.405Z,21.30
2018-08-11T20:54:34.315Z,21.30
2018-08-11T20:57:04.922Z,21.20
2018-08-11T20:59:37.701Z,21.20
2018-08-11T21:02:06.574Z,21.10
2018-08-11T21:04:36.324Z,21.10
2018-08-11T21:07:05.000Z,21.10
2018-08-11T21:09:33.470Z,21.00
2018-08-11T21:12:02.033Z,21.00
2018-08-11T21:14:30.548Z,20.90
2018-08-11T21:16:59.564Z,20.90
2018-08-11T21:19:28.062Z,20.80
2018-08-11T21:21:56.612Z,20.70
2018-08-11T21:24:31.570Z,20.70
2018-08-11T21:27:00.034Z,20.70
2018-08-11T21:29:28.504Z,20.60
2018-08-11T21:31:57.082Z,20.60
2018-08-11T21:34:25.566Z,20.50
2018-08-11T21:36:54.044Z,20.40
2018-08-11T21:39:22.481Z,20.30
2018-08-11T21:41:50.938Z,20.20
2018-08-11T21:44:19.397Z,20.10
2018-08-11T21:46:47.804Z,20.10
2018-08-11T21:49:16.635Z,20.10
2018-08-11T21:51:45.228Z,20.10
2018-08-11T21:54:14.098Z,20.00
2018-08-11T21:56:42.622Z,20.10
2018-08-11T21:59:11.072Z,20.00
2018-08-11T22:01:40.229Z,20.00
2018-08-11T22:04:08.658Z,19.90
2018-08-11T22:06:37.158Z,19.80
2018-08-11T22:09:10.033Z,19.70
2018-08-11T22:11:38.541Z,19.60
2018-08-11T22:14:07.714Z,19.50
2018-08-11T22:16:36.234Z,19.50
2018-08-11T22:19:04.722Z,19.40
2018-08-11T22:21:33.218Z,19.20
2018-08-11T22:24:01.704Z,19.20
2018-08-11T22:26:30.166Z,19.00
2018-08-11T22:28:58.661Z,18.90
2018-08-11T22:31:27.107Z,18.70
2018-08-11T22:33:55.552Z,18.70
2018-08-11T22:36:24.059Z,18.70
2018-08-11T22:38:53.536Z,18.60
2018-08-11T22:41:21.987Z,18.60
2018-08-11T22:43:50.654Z,18.60
2018-08-11T22:46:19.091Z,18.60
2018-08-11T22:48:47.731Z,18.60
2018-08-11T22:51:16.261Z,18.60
2018-08-11T22:53:44.717Z,18.50
2018-08-11T22:56:13.246Z,18.50
2018-08-11T22:58:41.836Z,18.40
2018-08-11T23:01:10.240Z,18.40
2018-08-11T23:03:38.733Z,18.40
2018-08-11T23:06:07.191Z,18.40
2018-08-11T23:08:35.791Z,18.40
2018-08-11T23:11:04.404Z,18.40
2018-08-11T23:13:32.869Z,18.30
2018-08-11T23:16:04.196Z,18.30
2018-08-11T23:18:32.671Z,18.10
2018-08-11T23:21:01.175Z,18.10
2018-08-11T23:23:29.590Z,18.10
2018-08-11T23:25:57.961Z,18.00
2018-08-11T23:28:26.440Z,17.90
2018-08-11T23:30:54.888Z,17.90
2018-08-11T23:33:23.417Z,17.90
2018-08-11T23:35:51.935Z,17.80
2018-08-11T23:38:20.394Z,17.80
2018-08-11T23:40:48.795Z,17.80
2018-08-11T23:43:17.263Z,17.80
2018-08-11T23:45:45.839Z,17.80
2018-08-11T23:48:14.505Z,17.80
2018-08-11T23:50:42.926Z,17.70
2018-08-11T23:53:11.333Z,17.70
2018-08-11T23:55:39.758Z,17.60
2018-08-11T23:58:08.261Z,17.60
